Time;durP1;ratioP1;P1;durP2;ratioP2;P2;SDS_P1;SDS_P2;PMS_P1;PMS_P2;Temp;Humidity;BMP_temperature;BMP_pressure;BME280_temperature;BME280_humidity;BME280_pressure;Samples;Min_cycle;Max_cycle;Signal;HPM_P1;HPM_P2
2021/11/05 00:01:57;;;;;;;1.17;1.07;;;6.80;99.90;;;;;;5113313;28;20452;-71
2021/11/05 00:04:23;;;;;;;2.00;1.23;;;6.70;99.90;;;;;;5112669;28;20056;-71
2021/11/05 00:06:50;;;;;;;1.67;1.53;;;6.80;99.90;;;;;;5113194;28;20490;-71
2021/11/05 00:09:17;;;;;;;1.10;1.00;;;6.70;99.90;;;;;;5113134;28;20047;-72
2021/11/05 00:11:43;;;;;;;2.83;1.23;;;6.70;99.90;;;;;;5113058;28;20101;-71
2021/11/05 00:14:11;;;;;;;1.77;1.07;;;6.70;99.90;;;;;;5112655;28;20069;-72
2021/11/05 00:16:38;;;;;;;0.90;0.90;;;6.70;99.90;;;;;;5112855;28;20047;-72
2021/11/05 00:19:04;;;;;;;2.27;1.27;;;6.70;99.90;;;;;;5113061;28;20412;-72
2021/11/05 00:21:31;;;;;;;1.47;1.37;;;6.70;99.90;;;;;;5113106;28;20040;-72
2021/11/05 00:23:58;;;;;;;2.60;1.23;;;6.70;99.90;;;;;;5112488;28;20044;-71
2021/11/05 00:26:24;;;;;;;1.93;1.23;;;6.70;99.90;;;;;;5112882;28;20138;-71
2021/11/05 00:28:51;;;;;;;2.03;1.77;;;6.70;99.90;;;;;;5112696;28;20039;-71
2021/11/05 00:31:19;;;;;;;1.40;1.30;;;6.70;99.90;;;;;;5112668;28;20044;-71
2021/11/05 00:33:46;;;;;;;1.27;1.03;;;6.60;99.90;;;;;;5112225;28;20564;-71
2021/11/05 00:36:14;;;;;;;2.23;1.57;;;6.60;99.90;;;;;;5112846;28;20438;-72
2021/11/05 00:38:41;;;;;;;1.90;1.23;;;6.60;99.90;;;;;;5112413;28;20440;-71
2021/11/05 00:41:08;;;;;;;2.87;1.73;;;6.60;99.90;;;;;;5112579;28;20044;-71
2021/11/05 00:43:35;;;;;;;3.00;1.20;;;6.60;99.90;;;;;;5112133;28;20039;-71
2021/11/05 00:46:02;;;;;;;1.33;1.07;;;6.60;99.90;;;;;;5112444;28;20564;-71
2021/11/05 00:48:30;;;;;;;3.93;1.33;;;6.60;99.90;;;;;;5111642;28;20055;-71
2021/11/05 00:50:56;;;;;;;2.20;0.90;;;6.60;99.90;;;;;;5112665;28;20540;-72
2021/11/05 00:53:23;;;;;;;1.37;1.03;;;6.60;99.90;;;;;;5112117;28;20044;-72
2021/11/05 00:55:50;;;;;;;1.73;0.87;;;6.50;99.90;;;;;;5112295;28;20480;-73
2021/11/05 00:58:17;;;;;;;1.10;0.83;;;6.50;99.90;;;;;;5112253;28;20055;-72
2021/11/05 01:00:45;;;;;;;0.90;0.80;;;6.50;99.90;;;;;;5112120;28;20479;-72
2021/11/05 01:03:11;;;;;;;1.00;0.90;;;6.50;99.90;;;;;;5111739;28;20381;-72
2021/11/05 01:05:39;;;;;;;0.80;0.70;;;6.50;99.90;;;;;;5112351;28;20043;-72
2021/11/05 01:08:07;;;;;;;0.97;0.93;;;6.40;99.90;;;;;;5112206;28;20048;-72
2021/11/05 01:10:35;;;;;;;1.00;0.90;;;6.40;99.90;;;;;;5112112;28;20043;-72
2021/11/05 01:13:02;;;;;;;0.93;0.70;;;6.40;99.90;;;;;;5112043;28;20441;-73
2021/11/05 01:15:29;;;;;;;3.63;1.17;;;6.40;99.90;;;;;;5111820;28;20105;-72
2021/11/05 01:17:56;;;;;;;1.37;0.87;;;6.40;99.90;;;;;;5112253;28;20093;-72
2021/11/05 01:20:23;;;;;;;3.63;0.93;;;6.40;99.90;;;;;;5112224;28;20044;-73
2021/11/05 01:22:52;;;;;;;1.77;1.13;;;6.40;99.90;;;;;;5112187;28;20096;-71
2021/11/05 01:25:19;;;;;;;3.30;1.73;;;6.40;99.90;;;;;;5111509;28;20039;-72
2021/11/05 01:27:47;;;;;;;1.30;1.00;;;6.40;99.90;;;;;;5111777;28;20416;-71
2021/11/05 01:30:15;;;;;;;1.10;0.97;;;6.40;99.90;;;;;;5112019;28;20052;-71
2021/11/05 01:32:43;;;;;;;1.53;1.03;;;6.30;99.90;;;;;;5112121;28;20044;-72
2021/11/05 01:35:11;;;;;;;1.20;1.10;;;6.40;99.90;;;;;;5111710;28;20040;-72
2021/11/05 01:37:38;;;;;;;1.43;1.00;;;6.40;99.90;;;;;;5112026;28;20056;-72
2021/11/05 01:40:07;;;;;;;1.37;1.00;;;6.40;99.90;;;;;;5111598;28;20104;-71
2021/11/05 01:42:34;;;;;;;1.57;1.30;;;6.40;99.90;;;;;;5112030;28;20051;-71
2021/11/05 01:45:01;;;;;;;0.97;0.80;;;6.40;99.90;;;;;;5111566;28;20052;-72
2021/11/05 01:47:27;;;;;;;2.97;1.00;;;6.40;99.90;;;;;;5111741;28;20415;-71
2021/11/05 01:49:54;;;;;;;2.00;1.13;;;6.40;99.90;;;;;;5111731;28;20047;-72
2021/11/05 01:52:21;;;;;;;0.87;0.53;;;6.40;99.90;;;;;;5111724;28;20047;-72
2021/11/05 01:54:48;;;;;;;1.23;1.13;;;6.40;99.90;;;;;;5111225;28;20047;-73
2021/11/05 01:57:16;;;;;;;1.17;1.00;;;6.40;99.90;;;;;;5111890;28;20043;-72
2021/11/05 01:59:49;;;;;;;1.53;1.17;;;6.40;99.90;;;;;;5113705;28;20104;-72
2021/11/05 02:02:15;;;;;;;0.93;0.87;;;6.40;99.90;;;;;;5115708;28;20052;-72
2021/11/05 02:04:42;;;;;;;1.47;1.00;;;6.40;99.90;;;;;;5115084;27;20048;-72
2021/11/05 02:07:11;;;;;;;0.90;0.73;;;6.50;99.90;;;;;;5115456;28;20047;-72
2021/11/05 02:09:38;;;;;;;1.77;1.23;;;6.40;99.90;;;;;;5115604;28;20057;-72
2021/11/05 02:12:07;;;;;;;1.52;1.13;;;6.50;99.90;;;;;;5115602;28;20092;-72
2021/11/05 02:14:35;;;;;;;0.90;0.90;;;6.50;99.90;;;;;;5115094;28;20100;-72
2021/11/05 02:17:04;;;;;;;1.70;0.77;;;6.50;99.90;;;;;;5115477;28;20043;-71
2021/11/05 02:19:33;;;;;;;1.13;1.03;;;6.50;99.90;;;;;;5115180;28;20055;-72
2021/11/05 02:22:03;;;;;;;1.00;0.87;;;6.40;99.90;;;;;;5115227;28;20051;-72
2021/11/05 02:24:30;;;;;;;2.00;1.33;;;6.50;99.90;;;;;;5113582;28;20056;-72
2021/11/05 02:26:58;;;;;;;1.60;0.83;;;6.50;99.90;;;;;;5115185;28;20051;-71
2021/11/05 02:29:25;;;;;;;1.43;1.20;;;6.50;99.90;;;;;;5115233;28;20135;-71
2021/11/05 02:31:52;;;;;;;1.10;1.00;;;6.50;99.90;;;;;;5115680;28;20093;-72
2021/11/05 02:34:19;;;;;;;0.97;0.87;;;6.50;99.90;;;;;;5114460;28;20051;-71
2021/11/05 02:36:47;;;;;;;2.67;1.33;;;6.50;99.90;;;;;;5115158;28;20040;-71
2021/11/05 02:39:15;;;;;;;2.05;1.02;;;6.50;99.90;;;;;;5114828;28;20047;-72
2021/11/05 02:41:43;;;;;;;1.67;1.13;;;6.50;99.90;;;;;;5115180;28;20461;-72
2021/11/05 02:44:10;;;;;;;2.10;1.43;;;6.50;99.90;;;;;;5114329;28;20445;-71
2021/11/05 02:46:37;;;;;;;2.20;1.10;;;6.50;99.90;;;;;;5114735;28;20592;-71
2021/11/05 02:49:06;;;;;;;1.03;0.80;;;6.50;99.90;;;;;;5115072;28;20047;-71
2021/11/05 02:51:34;;;;;;;1.37;1.27;;;6.50;99.90;;;;;;5114860;28;20089;-72
2021/11/05 02:54:01;;;;;;;2.57;1.13;;;6.50;99.90;;;;;;5114322;28;20043;-72
2021/11/05 02:56:29;;;;;;;1.17;1.07;;;6.50;99.90;;;;;;5114382;28;20097;-72
2021/11/05 02:58:58;;;;;;;1.10;1.00;;;6.50;99.90;;;;;;5114529;28;20100;-72
2021/11/05 03:01:25;;;;;;;1.33;1.17;;;6.50;99.90;;;;;;5114453;28;20176;-72
2021/11/05 03:03:52;;;;;;;1.30;1.10;;;6.50;99.90;;;;;;5114206;28;20047;-71
2021/11/05 03:06:19;;;;;;;2.23;1.67;;;6.50;99.90;;;;;;5114674;28;20040;-72
2021/11/05 03:08:46;;;;;;;1.73;1.20;;;6.50;99.90;;;;;;5114418;28;20089;-71
2021/11/05 03:11:13;;;;;;;1.97;1.60;;;6.50;99.90;;;;;;5113621;28;20051;-72
2021/11/05 03:13:42;;;;;;;5.53;3.20;;;6.50;99.90;;;;;;5113819;28;20044;-71
2021/11/05 03:16:09;;;;;;;3.83;2.30;;;6.50;99.90;;;;;;5114493;28;20142;-72
2021/11/05 03:18:39;;;;;;;1.20;0.90;;;6.50;99.90;;;;;;5114144;28;20051;-73
2021/11/05 03:21:06;;;;;;;2.37;1.50;;;6.50;99.90;;;;;;5114286;28;20101;-72
2021/11/05 03:23:33;;;;;;;3.20;1.60;;;6.50;99.90;;;;;;5113692;28;20461;-72
2021/11/05 03:26:00;;;;;;;2.13;1.40;;;6.50;99.90;;;;;;5114165;28;20092;-72
2021/11/05 03:28:26;;;;;;;2.20;1.60;;;6.50;99.90;;;;;;5113900;28;20089;-73
2021/11/05 03:30:54;;;;;;;1.00;0.90;;;6.50;99.90;;;;;;5114196;28;20453;-70
2021/11/05 03:33:21;;;;;;;2.80;1.67;;;6.50;99.90;;;;;;5113509;28;20039;-72
2021/11/05 03:35:48;;;;;;;5.47;3.57;;;6.50;99.90;;;;;;5113940;28;20065;-72
2021/11/05 03:38:14;;;;;;;2.45;2.10;;;6.50;99.90;;;;;;5114013;28;20075;-72
2021/11/05 03:40:41;;;;;;;1.40;1.30;;;6.60;99.90;;;;;;5113679;28;20473;-72
2021/11/05 03:43:08;;;;;;;3.37;2.03;;;6.50;99.90;;;;;;5113101;28;20047;-72
2021/11/05 03:45:35;;;;;;;2.60;1.90;;;6.50;99.90;;;;;;5113941;28;20468;-72
2021/11/05 03:48:03;;;;;;;2.30;1.50;;;6.50;99.90;;;;;;5113880;28;20054;-72
2021/11/05 03:50:29;;;;;;;3.63;1.60;;;6.50;99.90;;;;;;5113564;28;20039;-72
2021/11/05 03:52:56;;;;;;;2.00;1.20;;;6.60;99.90;;;;;;5113581;28;20048;-71
2021/11/05 03:55:23;;;;;;;3.50;2.47;;;6.60;99.90;;;;;;5112850;28;20039;-71
2021/11/05 03:57:49;;;;;;;2.23;1.90;;;6.60;99.90;;;;;;5113533;28;20039;-71
2021/11/05 04:00:17;;;;;;;4.93;2.73;;;6.60;99.90;;;;;;5113354;28;20044;-72
2021/11/05 04:02:44;;;;;;;2.80;2.03;;;6.60;99.90;;;;;;5113340;28;20047;-72
2021/11/05 04:05:12;;;;;;;3.23;2.80;;;6.60;99.90;;;;;;5112792;28;20384;-72
2021/11/05 04:07:38;;;;;;;3.00;2.20;;;6.70;99.90;;;;;;5113273;28;20047;-71
2021/11/05 04:10:06;;;;;;;3.83;2.73;;;6.60;99.90;;;;;;5113048;28;20499;-71
2021/11/05 04:12:32;;;;;;;5.23;2.80;;;6.70;99.90;;;;;;5113297;28;20047;-72
2021/11/05 04:15:00;;;;;;;4.20;3.43;;;6.70;99.90;;;;;;5112535;28;20502;-71
2021/11/05 04:17:26;;;;;;;3.97;2.30;;;6.70;99.90;;;;;;5113132;28;20043;-72
2021/11/05 04:19:53;;;;;;;4.10;2.40;;;6.80;99.90;;;;;;5112883;28;20092;-72
2021/11/05 04:22:21;;;;;;;6.53;3.10;;;6.80;99.90;;;;;;5112846;28;20039;-72
2021/11/05 04:24:47;;;;;;;6.93;3.20;;;6.70;99.90;;;;;;5112313;28;20120;-72
2021/11/05 04:27:14;;;;;;;4.23;2.83;;;6.80;99.90;;;;;;5112832;28;20487;-73
2021/11/05 04:29:41;;;;;;;5.30;2.73;;;6.80;99.90;;;;;;5112822;28;20495;-73
2021/11/05 04:32:08;;;;;;;4.17;2.63;;;6.80;99.90;;;;;;5112879;28;20047;-72
2021/11/05 04:34:35;;;;;;;4.23;3.07;;;6.80;99.90;;;;;;5112271;28;20048;-72
2021/11/05 04:37:02;;;;;;;4.43;3.30;;;6.90;99.90;;;;;;5112656;28;20503;-71
2021/11/05 04:39:30;;;;;;;4.63;2.80;;;6.80;99.90;;;;;;5112393;28;20483;-72
2021/11/05 04:41:56;;;;;;;4.47;3.43;;;6.80;99.90;;;;;;5112795;28;20043;-71
2021/11/05 04:44:23;;;;;;;6.77;3.43;;;6.80;99.90;;;;;;5111934;28;20557;-72
2021/11/05 04:46:49;;;;;;;4.87;3.50;;;6.80;99.90;;;;;;5112328;28;20040;-70
2021/11/05 04:49:16;;;;;;;4.50;2.77;;;6.80;99.90;;;;;;5113290;28;20043;-76
2021/11/05 04:51:44;;;;;;;4.07;3.43;;;6.90;99.90;;;;;;5112764;28;20039;-76
2021/11/05 04:54:11;;;;;;;7.43;4.53;;;6.90;99.90;;;;;;5112346;28;20101;-75
2021/11/05 04:56:40;;;;;;;6.43;5.07;;;7.00;99.90;;;;;;5117321;28;20052;-77
2021/11/05 04:59:07;;;;;;;5.70;3.67;;;7.00;99.90;;;;;;5116232;28;20561;-77
2021/11/05 05:01:33;;;;;;;4.33;3.87;;;6.90;99.90;;;;;;5112426;28;20047;-71
2021/11/05 05:04:00;;;;;;;6.13;4.63;;;7.00;99.90;;;;;;5111985;28;20053;-76
2021/11/05 05:06:27;;;;;;;9.03;6.13;;;7.00;99.90;;;;;;5114856;28;20465;-75
2021/11/05 05:08:54;;;;;;;8.97;5.37;;;7.00;99.90;;;;;;5114199;28;20116;-76
2021/11/05 05:11:21;;;;;;;8.33;4.87;;;7.00;99.90;;;;;;5114358;28;20048;-74
2021/11/05 05:13:49;;;;;;;10.23;5.70;;;7.00;99.90;;;;;;5113025;28;20069;-74
2021/11/05 05:16:15;;;;;;;9.05;5.57;;;7.10;99.90;;;;;;5112338;28;20158;-72
2021/11/05 05:18:44;;;;;;;8.95;4.95;;;7.10;99.90;;;;;;5112015;28;20097;-73
2021/11/05 05:21:11;;;;;;;8.30;6.17;;;7.10;99.90;;;;;;5112173;28;20044;-70
2021/11/05 05:23:38;;;;;;;8.77;5.53;;;7.10;99.90;;;;;;5111671;28;20052;-74
2021/11/05 05:26:05;;;;;;;10.27;6.00;;;7.10;99.90;;;;;;5112403;28;20048;-74
2021/11/05 05:28:32;;;;;;;8.45;5.22;;;7.10;99.90;;;;;;5111965;28;20127;-73
2021/11/05 05:31:00;;;;;;;8.83;6.03;;;7.20;99.90;;;;;;5112055;28;20047;-73
2021/11/05 05:33:27;;;;;;;7.90;5.40;;;7.20;99.90;;;;;;5111702;28;20998;-72
2021/11/05 05:35:54;;;;;;;11.63;7.30;;;7.20;99.90;;;;;;5116228;28;20100;-72
2021/11/05 05:38:20;;;;;;;15.53;8.03;;;7.20;99.90;;;;;;5115793;28;20410;-71
2021/11/05 05:40:47;;;;;;;12.03;7.40;;;7.10;99.90;;;;;;5115877;28;20105;-74
2021/11/05 05:43:14;;;;;;;11.85;7.72;;;7.20;99.90;;;;;;5115536;28;20070;-74
2021/11/05 05:45:40;;;;;;;12.82;8.05;;;7.20;99.90;;;;;;5116677;28;20047;-70
2021/11/05 05:48:09;;;;;;;13.18;7.93;;;7.20;99.90;;;;;;5115584;28;20085;-69
2021/11/05 05:50:36;;;;;;;16.52;9.60;;;7.20;99.90;;;;;;5115705;28;20040;-71
2021/11/05 05:53:02;;;;;;;15.60;8.67;;;7.20;99.90;;;;;;5115808;28;20043;-74
2021/11/05 05:55:29;;;;;;;15.75;10.13;;;7.20;99.90;;;;;;5115451;28;20048;-74
2021/11/05 05:57:56;;;;;;;15.57;10.00;;;7.20;99.90;;;;;;5115812;28;20073;-72
2021/11/05 06:00:23;;;;;;;18.63;9.68;;;7.20;99.90;;;;;;5115502;28;20047;-75
2021/11/05 06:02:50;;;;;;;17.03;9.83;;;7.20;99.90;;;;;;5116072;28;20047;-78
2021/11/05 06:05:17;;;;;;;18.43;9.53;;;7.30;99.90;;;;;;5115456;28;20039;-71
2021/11/05 06:07:44;;;;;;;20.90;9.37;;;7.20;99.90;;;;;;5116169;28;20111;-72
2021/11/05 06:10:11;;;;;;;19.35;10.82;;;7.30;99.90;;;;;;5115387;28;20048;-72
2021/11/05 06:12:37;;;;;;;20.15;10.50;;;7.30;99.90;;;;;;5115416;28;20481;-71
2021/11/05 06:15:05;;;;;;;18.70;11.40;;;7.30;99.90;;;;;;5114790;27;20101;-69
2021/11/05 06:17:33;;;;;;;18.07;10.40;;;7.30;99.90;;;;;;5115286;28;20051;-72
2021/11/05 06:19:59;;;;;;;17.90;9.67;;;7.30;99.90;;;;;;5115182;28;20051;-72
2021/11/05 06:22:27;;;;;;;26.25;12.95;;;7.30;99.90;;;;;;5115213;28;20051;-72
2021/11/05 06:24:56;;;;;;;20.05;11.30;;;7.30;99.90;;;;;;5114713;28;20093;-71
2021/11/05 06:27:23;;;;;;;17.92;11.18;;;7.30;99.90;;;;;;5115102;28;20047;-69
2021/11/05 06:29:50;;;;;;;25.38;12.35;;;7.30;99.90;;;;;;5114960;28;20052;-71
2021/11/05 06:32:17;;;;;;;22.52;12.45;;;7.30;99.90;;;;;;5115143;28;20043;-71
2021/11/05 06:34:43;;;;;;;20.87;11.90;;;7.30;99.90;;;;;;5114856;28;20499;-71
2021/11/05 06:37:10;;;;;;;20.85;11.35;;;7.30;99.90;;;;;;5114921;28;20062;-71
2021/11/05 06:39:38;;;;;;;19.73;11.85;;;7.30;99.90;;;;;;5114818;28;20050;-71
2021/11/05 06:42:06;;;;;;;20.23;11.17;;;7.30;99.90;;;;;;5114715;28;20039;-70
2021/11/05 06:44:33;;;;;;;18.85;11.38;;;7.30;99.90;;;;;;5114541;28;20158;-73
2021/11/05 06:46:59;;;;;;;22.58;11.85;;;7.30;99.90;;;;;;5113600;28;20161;-71
2021/11/05 06:49:26;;;;;;;22.45;11.40;;;7.30;99.90;;;;;;5114794;28;20043;-71
2021/11/05 06:51:54;;;;;;;24.87;12.10;;;7.30;99.90;;;;;;5114929;28;20040;-70
2021/11/05 06:54:21;;;;;;;20.00;11.82;;;7.30;99.90;;;;;;5114525;28;20491;-74
2021/11/05 06:56:50;;;;;;;21.63;13.03;;;7.40;99.90;;;;;;5114481;28;20044;-77
2021/11/05 06:59:17;;;;;;;16.97;11.60;;;7.40;99.90;;;;;;5114841;28;20101;-71
2021/11/05 07:01:44;;;;;;;24.55;11.45;;;7.40;99.90;;;;;;5114259;28;20052;-70
2021/11/05 07:04:10;;;;;;;17.75;10.95;;;7.40;99.90;;;;;;5113910;28;20055;-72
2021/11/05 07:06:44;;;;;;;18.53;11.37;;;7.40;99.90;;;;;;5114439;28;20487;-70
2021/11/05 07:09:12;;;;;;;27.30;14.83;;;7.40;99.90;;;;;;5114258;28;20492;-71
2021/11/05 07:11:39;;;;;;;19.02;10.93;;;7.40;99.90;;;;;;5114392;28;20462;-73
2021/11/05 07:14:07;;;;;;;20.80;10.47;;;7.40;99.90;;;;;;5114006;28;20052;-74
2021/11/05 07:16:36;;;;;;;18.77;10.37;;;7.40;99.90;;;;;;5115983;28;20048;-75
2021/11/05 07:19:03;;;;;;;23.50;11.43;;;7.40;99.90;;;;;;5114920;28;20040;-74
2021/11/05 07:21:30;;;;;;;21.52;11.18;;;7.40;99.90;;;;;;5118336;28;20147;-75
2021/11/05 07:24:02;;;;;;;21.33;10.93;;;7.50;99.90;;;;;;5116287;28;20506;-76
2021/11/05 07:26:33;;;;;;;20.77;10.80;;;7.50;99.90;;;;;;5115701;28;20047;-75
2021/11/05 07:29:01;;;;;;;19.35;10.40;;;7.50;99.90;;;;;;5115498;28;20052;-80
2021/11/05 07:31:30;;;;;;;20.25;11.20;;;7.60;99.90;;;;;;5118789;28;20048;-75
2021/11/05 07:33:57;;;;;;;19.30;11.13;;;7.60;99.90;;;;;;5118127;28;20275;-70
2021/11/05 07:36:24;;;;;;;21.13;11.65;;;7.50;99.90;;;;;;5114375;28;20044;-72
2021/11/05 07:38:50;;;;;;;15.35;10.10;;;7.60;99.90;;;;;;5113817;28;20108;-70
2021/11/05 07:41:18;;;;;;;20.83;11.10;;;7.60;99.90;;;;;;5113757;28;20108;-71
2021/11/05 07:43:45;;;;;;;13.63;9.50;;;7.60;99.90;;;;;;5113480;28;20044;-73
2021/11/05 07:46:11;;;;;;;16.45;9.32;;;7.60;99.90;;;;;;5113755;28;20051;-72
2021/11/05 07:48:39;;;;;;;19.00;10.13;;;7.60;99.90;;;;;;5113225;28;20156;-71
2021/11/05 07:51:06;;;;;;;15.48;10.07;;;7.60;99.90;;;;;;5113039;28;20491;-70
2021/11/05 07:53:33;;;;;;;17.20;9.80;;;7.60;99.90;;;;;;5112788;28;20073;-72
2021/11/05 07:56:00;;;;;;;14.65;9.35;;;7.60;99.90;;;;;;5113399;28;20450;-72
2021/11/05 07:58:27;;;;;;;18.17;9.55;;;7.60;99.90;;;;;;5113251;28;20466;-75
2021/11/05 08:00:54;;;;;;;18.33;8.90;;;7.60;99.90;;;;;;5113356;28;20048;-75
2021/11/05 08:03:21;;;;;;;16.83;10.90;;;7.70;99.90;;;;;;5113237;28;20619;-75
2021/11/05 08:05:50;;;;;;;24.15;15.27;;;7.60;99.90;;;;;;5113789;28;20101;-77
2021/11/05 08:08:17;;;;;;;15.63;9.15;;;7.60;99.90;;;;;;5113811;28;20051;-74
2021/11/05 08:10:44;;;;;;;16.75;9.63;;;7.60;99.90;;;;;;5113338;28;20082;-72
2021/11/05 08:13:11;;;;;;;19.05;9.50;;;7.70;99.90;;;;;;5112621;28;20047;-74
2021/11/05 08:15:38;;;;;;;16.00;8.48;;;7.60;99.90;;;;;;5113470;28;20403;-70
2021/11/05 08:18:07;;;;;;;17.73;10.67;;;7.60;99.90;;;;;;5112930;28;20039;-77
2021/11/05 08:20:34;;;;;;;17.27;8.75;;;7.60;99.90;;;;;;5113005;28;20051;-73
2021/11/05 08:23:02;;;;;;;15.52;9.27;;;7.70;99.90;;;;;;5113118;28;20135;-72
2021/11/05 08:25:30;;;;;;;21.63;9.00;;;7.70;99.90;;;;;;5112656;28;20100;-75
2021/11/05 08:27:57;;;;;;;12.68;8.40;;;7.70;99.90;;;;;;5112867;28;20071;-73
2021/11/05 08:30:26;;;;;;;14.80;8.65;;;7.70;99.90;;;;;;5112703;28;20043;-75
2021/11/05 08:32:56;;;;;;;13.68;8.98;;;7.80;99.90;;;;;;5112971;28;20044;-69
2021/11/05 08:35:26;;;;;;;17.25;9.10;;;7.70;99.90;;;;;;5112438;28;20101;-74
2021/11/05 08:37:54;;;;;;;14.00;8.82;;;7.80;99.90;;;;;;5114198;28;20087;-78
2021/11/05 08:40:22;;;;;;;16.83;9.93;;;7.80;99.90;;;;;;5112633;28;20043;-75
2021/11/05 08:42:50;;;;;;;15.23;9.38;;;7.80;99.90;;;;;;5112614;28;20048;-75
2021/11/05 08:45:17;;;;;;;13.27;9.23;;;7.90;99.90;;;;;;5112156;28;20062;-74
2021/11/05 08:47:44;;;;;;;13.18;7.97;;;7.90;99.90;;;;;;5112297;28;20495;-74
2021/11/05 08:50:14;;;;;;;15.15;9.10;;;7.90;99.90;;;;;;5112622;28;20044;-73
2021/11/05 08:52:42;;;;;;;16.23;7.93;;;7.90;99.90;;;;;;5112542;28;20043;-77
2021/11/05 08:55:10;;;;;;;11.23;8.60;;;8.00;99.90;;;;;;5112178;28;20499;-72
2021/11/05 08:57:44;;;;;;;12.45;7.97;;;8.10;99.90;;;;;;5113038;28;20049;-78
2021/11/05 09:00:15;;;;;;;12.68;9.80;;;8.10;99.90;;;;;;5112529;28;20436;-78
2021/11/05 09:02:44;;;;;;;13.98;7.63;;;8.20;99.90;;;;;;5113319;28;20104;-76
2021/11/05 09:05:11;;;;;;;11.02;7.47;;;8.20;99.90;;;;;;5112153;28;20074;-72
2021/11/05 09:07:37;;;;;;;12.48;7.88;;;8.20;99.90;;;;;;5112843;28;20046;-74
2021/11/05 09:10:05;;;;;;;13.73;7.72;;;8.20;99.90;;;;;;5111796;28;20048;-75
2021/11/05 09:12:33;;;;;;;9.90;6.78;;;8.20;99.90;;;;;;5112704;28;20055;-75
2021/11/05 09:15:02;;;;;;;13.65;8.55;;;8.30;99.90;;;;;;5112121;28;20040;-78
2021/11/05 09:17:29;;;;;;;14.30;8.93;;;8.20;99.90;;;;;;5112034;28;20048;-68
2021/11/05 09:19:55;;;;;;;19.70;10.82;;;8.30;99.90;;;;;;5112349;28;20266;-73
2021/11/05 09:22:22;;;;;;;15.45;9.55;;;8.20;99.90;;;;;;5111933;28;20538;-72
2021/11/05 09:24:50;;;;;;;12.80;8.60;;;8.30;99.90;;;;;;5111496;28;20055;-72
2021/11/05 09:27:17;;;;;;;13.55;8.38;;;8.30;99.90;;;;;;5112138;28;20044;-72
2021/11/05 09:29:44;;;;;;;15.18;8.10;;;8.30;99.90;;;;;;5112280;28;20134;-75
2021/11/05 09:32:13;;;;;;;12.02;6.85;;;8.40;99.90;;;;;;5112194;28;20079;-75
2021/11/05 09:34:39;;;;;;;15.88;8.73;;;8.40;99.90;;;;;;5111656;28;20047;-73
2021/11/05 09:37:07;;;;;;;12.60;7.53;;;8.40;99.90;;;;;;5111986;28;20098;-71
2021/11/05 09:39:34;;;;;;;11.73;7.18;;;8.40;99.90;;;;;;5112134;28;20054;-73
2021/11/05 09:42:09;;;;;;;12.75;7.30;;;8.50;99.90;;;;;;5111791;28;20051;-76
2021/11/05 09:44:36;;;;;;;10.15;6.60;;;8.50;99.90;;;;;;5111463;28;20567;-69
2021/11/05 09:47:04;;;;;;;13.07;6.25;;;8.60;99.90;;;;;;5111776;28;20040;-70
2021/11/05 09:49:33;;;;;;;9.00;6.22;;;8.60;99.90;;;;;;5111553;28;20128;-70
2021/11/05 09:52:03;;;;;;;9.15;6.13;;;8.60;99.90;;;;;;5112047;28;20100;-73
2021/11/05 09:54:35;;;;;;;9.82;6.38;;;8.60;99.90;;;;;;5111656;28;20048;-71
2021/11/05 09:57:03;;;;;;;8.45;5.43;;;8.70;99.90;;;;;;5111818;28;20117;-72
2021/11/05 09:59:30;;;;;;;9.65;5.63;;;8.70;99.90;;;;;;5111575;28;20093;-74
2021/11/05 10:01:56;;;;;;;7.82;5.65;;;8.80;99.90;;;;;;5118239;28;20101;-71
2021/11/05 10:04:23;;;;;;;5.93;4.65;;;8.80;99.90;;;;;;5111153;28;20101;-73
2021/11/05 10:07:09;;;;;;;8.55;5.40;;;8.80;99.90;;;;;;5111643;28;20043;-73
2021/11/05 10:09:38;;;;;;;6.28;4.25;;;8.90;99.90;;;;;;5111844;28;20083;-71
2021/11/05 10:12:14;;;;;;;6.55;4.20;;;8.90;99.90;;;;;;5111646;28;20040;-73
2021/11/05 10:14:42;;;;;;;7.40;4.28;;;9.00;99.90;;;;;;5111345;28;20065;-75
2021/11/05 10:17:12;;;;;;;5.55;3.97;;;9.00;99.90;;;;;;5111818;28;20048;-71
2021/11/05 10:19:53;;;;;;;5.05;3.63;;;9.00;99.90;;;;;;5111966;28;20050;-71
2021/11/05 10:22:35;;;;;;;8.02;4.07;;;9.10;99.90;;;;;;5115194;28;20507;-72
2021/11/05 10:25:22;;;;;;;10.27;3.55;;;9.30;99.90;;;;;;5114911;28;20050;-72
2021/11/05 10:27:59;;;;;;;4.95;3.78;;;9.30;99.90;;;;;;5115282;28;20100;-73
2021/11/05 10:30:26;;;;;;;11.32;6.75;;;9.40;99.90;;;;;;5115189;28;20055;-75
2021/11/05 10:32:56;;;;;;;8.50;4.68;;;9.40;99.90;;;;;;5115408;28;20530;-72
2021/11/05 10:35:24;;;;;;;4.00;3.23;;;9.40;99.90;;;;;;5114672;28;20072;-71
2021/11/05 10:37:55;;;;;;;6.88;4.70;;;9.40;99.90;;;;;;5115179;28;20059;-72
2021/11/05 10:40:22;;;;;;;6.35;4.35;;;9.40;99.90;;;;;;5115059;28;20125;-72
2021/11/05 10:42:49;;;;;;;8.48;5.32;;;9.40;99.90;;;;;;5115001;28;20385;-71
2021/11/05 10:45:18;;;;;;;10.05;4.10;;;9.40;99.90;;;;;;5114392;28;20043;-71
2021/11/05 10:48:00;;;;;;;5.72;2.80;;;9.40;99.90;;;;;;5114777;28;20043;-71
2021/11/05 10:50:31;;;;;;;7.75;2.97;;;9.40;99.90;;;;;;5114936;28;20100;-71
2021/11/05 10:53:06;;;;;;;4.60;3.28;;;9.30;99.90;;;;;;5114715;28;20484;-73
2021/11/05 10:55:41;;;;;;;7.10;2.60;;;9.40;99.90;;;;;;5114861;28;20051;-70
2021/11/05 10:58:07;;;;;;;5.40;2.50;;;9.40;99.90;;;;;;5114647;28;20477;-70
2021/11/05 11:00:35;;;;;;;4.40;2.55;;;9.40;99.90;;;;;;5114651;28;20044;-71
2021/11/05 11:03:16;;;;;;;3.35;2.53;;;9.50;99.90;;;;;;5114661;28;20047;-69
2021/11/05 11:05:45;;;;;;;3.58;2.47;;;9.50;99.90;;;;;;5114433;28;20553;-70
2021/11/05 11:08:20;;;;;;;4.53;2.60;;;9.60;99.90;;;;;;5114383;28;20040;-69
2021/11/05 11:10:50;;;;;;;5.93;3.10;;;9.50;99.90;;;;;;5114550;28;20047;-73
2021/11/05 11:13:42;;;;;;;4.28;2.22;;;9.60;99.90;;;;;;5114153;28;20473;-73
2021/11/05 11:16:12;;;;;;;4.65;2.35;;;9.60;99.90;;;;;;5099153;28;20039;-73
2021/11/05 11:18:55;;;;;;;6.35;2.88;;;9.60;99.90;;;;;;5114413;27;20039;-73
2021/11/05 11:21:24;;;;;;;3.67;2.67;;;9.60;99.90;;;;;;5115826;28;20052;-74
2021/11/05 11:23:53;;;;;;;6.15;3.00;;;9.60;99.90;;;;;;5114200;28;20051;-73
2021/11/05 11:26:20;;;;;;;4.03;2.45;;;9.60;99.90;;;;;;5114129;28;20096;-73
2021/11/05 11:28:47;;;;;;;5.95;3.20;;;9.50;99.90;;;;;;5114231;28;20066;-73
2021/11/05 11:31:15;;;;;;;4.13;3.17;;;9.60;99.90;;;;;;5113574;28;20497;-72
2021/11/05 11:33:42;;;;;;;3.28;2.50;;;9.60;99.90;;;;;;5113137;28;20043;-72
2021/11/05 11:36:11;;;;;;;3.60;2.72;;;9.60;99.90;;;;;;5114149;28;20047;-72
2021/11/05 11:38:38;;;;;;;3.55;3.22;;;9.60;99.90;;;;;;5113982;28;20088;-72
2021/11/05 11:41:09;;;;;;;7.18;2.55;;;9.50;99.90;;;;;;5114020;28;20051;-73
2021/11/05 11:43:36;;;;;;;7.05;4.68;;;9.40;99.90;;;;;;5113529;28;20115;-72
2021/11/05 11:46:03;;;;;;;7.25;4.40;;;9.50;99.90;;;;;;5114000;28;20051;-74
2021/11/05 11:48:41;;;;;;;2.25;2.05;;;9.40;99.90;;;;;;5113414;28;20100;-73
2021/11/05 11:51:27;;;;;;;6.05;2.78;;;9.40;99.90;;;;;;5114031;28;20135;-73
2021/11/05 11:53:56;;;;;;;4.78;2.53;;;9.40;99.90;;;;;;5113383;28;20047;-72
2021/11/05 11:56:26;;;;;;;3.22;2.42;;;9.40;99.90;;;;;;5113722;28;20059;-73
2021/11/05 11:58:55;;;;;;;3.30;2.10;;;9.40;99.90;;;;;;5113530;28;20553;-73
2021/11/05 12:01:23;;;;;;;4.07;2.10;;;9.40;99.90;;;;;;5113456;28;20079;-73
2021/11/05 12:03:56;;;;;;;3.85;2.72;;;9.40;99.90;;;;;;5112997;28;20043;-70
2021/11/05 12:06:23;;;;;;;2.80;2.20;;;9.50;99.90;;;;;;5113334;28;20059;-69
2021/11/05 12:08:50;;;;;;;2.72;1.98;;;9.40;99.90;;;;;;5113284;28;20516;-71
2021/11/05 12:11:36;;;;;;;3.15;1.92;;;9.40;99.90;;;;;;5113088;28;20093;-72
2021/11/05 12:14:11;;;;;;;10.38;2.30;;;9.40;99.90;;;;;;5112998;28;20100;-69
2021/11/05 12:16:38;;;;;;;5.60;2.75;;;9.40;99.90;;;;;;5113323;28;20051;-74
2021/11/05 12:19:10;;;;;;;4.40;2.20;;;9.40;99.90;;;;;;5112957;28;20126;-75
2021/11/05 12:21:39;;;;;;;4.25;2.38;;;9.40;99.90;;;;;;5112933;28;20043;-76
2021/11/05 12:24:29;;;;;;;3.65;1.92;;;9.40;99.90;;;;;;5112493;28;20047;-74
2021/11/05 12:27:10;;;;;;;4.20;1.98;;;9.40;99.90;;;;;;5112971;28;20048;-74
2021/11/05 12:30:10;;;;;;;4.88;2.88;;;9.50;99.90;;;;;;5112779;28;20043;-74
2021/11/05 12:32:38;;;;;;;3.00;2.17;;;9.50;99.90;;;;;;5112723;28;20146;-75
2021/11/05 12:35:20;;;;;;;3.72;2.88;;;9.50;99.90;;;;;;5112385;28;20043;-75
2021/11/05 12:37:55;;;;;;;6.43;3.13;;;9.60;99.90;;;;;;5112692;28;20414;-72
2021/11/05 12:40:34;;;;;;;5.05;2.38;;;9.60;99.90;;;;;;5113052;28;20047;-70
2021/11/05 12:43:05;;;;;;;5.25;3.38;;;9.60;99.90;;;;;;5112579;28;20054;-71
2021/11/05 12:45:49;;;;;;;3.97;3.35;;;9.70;99.90;;;;;;5112193;28;20118;-75
2021/11/05 12:48:16;;;;;;;3.78;2.83;;;9.90;99.90;;;;;;5112717;28;20070;-74
2021/11/05 12:50:45;;;;;;;8.50;3.45;;;9.90;99.90;;;;;;5112503;28;20047;-71
2021/11/05 12:53:13;;;;;;;5.70;3.53;;;10.00;99.90;;;;;;5111761;28;20048;-72
2021/11/05 12:55:43;;;;;;;5.53;3.22;;;10.00;99.90;;;;;;5112484;28;20047;-75
2021/11/05 12:58:15;;;;;;;3.22;2.65;;;10.10;99.90;;;;;;5112400;28;20560;-73
2021/11/05 13:00:45;;;;;;;3.35;2.60;;;10.10;99.90;;;;;;5112345;28;20075;-71